Richmond Heights, Ohio
Current Conditions -  °F | °C
As of 3:45 PM on Thursday 18 Dec 2014 (Local Time) from KCGF Reporting Station
Overcast Overcast  
Wind Chill: -5°   Ceiling: 1500
Heat Index:   Visibility: 10mi
Dew Point: -3°   Wind: 12mph
Humidity: 80%   Direction: 270°W
Pressure: 30.16"   Gusts: NA
Location:  41.5545°N, 81.4746°W
Report Text: KCGF 182045Z 27010KT 10SM OVC015 00/M03 A3016
Loading
Personal Weather Stations






























Interactive Weather Map New forecast layout! Learn more

10-Day Weather Forecast

Advertisements
Track Severe Weather on mobile